sensor_id;sensor_type;location;lat;lon;timestamp;temperature;humidity
15107;DHT22;7654;45.308;-75.096;2023-04-03T00:00:13;-3.70;99.90
15107;DHT22;7654;45.308;-75.096;2023-04-03T00:02:43;-3.80;99.90
15107;DHT22;7654;45.308;-75.096;2023-04-03T00:05:13;-3.90;99.90
15107;DHT22;7654;45.308;-75.096;2023-04-03T00:07:43;-4.00;99.90
15107;DHT22;7654;45.308;-75.096;2023-04-03T00:10:14;-4.10;99.90
15107;DHT22;7654;45.308;-75.096;2023-04-03T00:12:46;-4.20;99.90
15107;DHT22;7654;45.308;-75.096;2023-04-03T00:15:17;-4.20;99.90
15107;DHT22;7654;45.308;-75.096;2023-04-03T00:17:47;-4.20;99.90
15107;DHT22;7654;45.308;-75.096;2023-04-03T00:20:18;-4.40;99.90
15107;DHT22;7654;45.308;-75.096;2023-04-03T00:22:48;-4.60;99.90
15107;DHT22;7654;45.308;-75.096;2023-04-03T00:25:18;-4.60;99.90
15107;DHT22;7654;45.308;-75.096;2023-04-03T00:27:50;-4.60;99.90
15107;DHT22;7654;45.308;-75.096;2023-04-03T00:30:23;-4.60;99.90
15107;DHT22;7654;45.308;-75.096;2023-04-03T00:32:54;-4.60;99.90
15107;DHT22;7654;45.308;-75.096;2023-04-03T00:35:25;-4.40;99.90
15107;DHT22;7654;45.308;-75.096;2023-04-03T00:37:56;-4.50;99.90
15107;DHT22;7654;45.308;-75.096;2023-04-03T00:40:27;-4.40;99.90
15107;DHT22;7654;45.308;-75.096;2023-04-03T00:43:05;-4.40;99.90
15107;DHT22;7654;45.308;-75.096;2023-04-03T00:45:40;-4.30;99.90
15107;DHT22;7654;45.308;-75.096;2023-04-03T00:48:15;-4.40;99.90
15107;DHT22;7654;45.308;-75.096;2023-04-03T00:50:47;-4.20;99.90
15107;DHT22;7654;45.308;-75.096;2023-04-03T00:53:19;-4.20;99.90
15107;DHT22;7654;45.308;-75.096;2023-04-03T00:55:54;-4.30;99.90
15107;DHT22;7654;45.308;-75.096;2023-04-03T00:58:31;-4.30;99.90
15107;DHT22;7654;45.308;-75.096;2023-04-03T01:01:07;-4.30;99.90
15107;DHT22;7654;45.308;-75.096;2023-04-03T01:03:38;-4.20;99.90
15107;DHT22;7654;45.308;-75.096;2023-04-03T01:06:08;-4.30;99.90
15107;DHT22;7654;45.308;-75.096;2023-04-03T01:08:39;-4.20;99.90
15107;DHT22;7654;45.308;-75.096;2023-04-03T01:11:09;-4.20;99.90
15107;DHT22;7654;45.308;-75.096;2023-04-03T01:13:41;-4.00;99.90
15107;DHT22;7654;45.308;-75.096;2023-04-03T01:16:11;-3.90;99.90
15107;DHT22;7654;45.308;-75.096;2023-04-03T01:18:42;-3.80;99.90
15107;DHT22;7654;45.308;-75.096;2023-04-03T01:21:50;-3.80;99.90
15107;DHT22;7654;45.308;-75.096;2023-04-03T01:24:33;-3.80;99.90
15107;DHT22;7654;45.308;-75.096;2023-04-03T01:27:06;-3.80;99.90
15107;DHT22;7654;45.308;-75.096;2023-04-03T01:29:38;-3.80;99.90
15107;DHT22;7654;45.308;-75.096;2023-04-03T01:32:11;-3.80;99.90
15107;DHT22;7654;45.308;-75.096;2023-04-03T01:34:41;-3.70;99.90
15107;DHT22;7654;45.308;-75.096;2023-04-03T01:37:12;-3.60;99.90
15107;DHT22;7654;45.308;-75.096;2023-04-03T01:39:42;-3.50;99.90
15107;DHT22;7654;45.308;-75.096;2023-04-03T01:42:12;-3.40;99.90
15107;DHT22;7654;45.308;-75.096;2023-04-03T01:44:44;-3.20;99.90
15107;DHT22;7654;45.308;-75.096;2023-04-03T01:47:16;-3.10;99.90
15107;DHT22;7654;45.308;-75.096;2023-04-03T01:49:46;-3.20;99.90
15107;DHT22;7654;45.308;-75.096;2023-04-03T01:52:17;-3.10;99.90
15107;DHT22;7654;45.308;-75.096;2023-04-03T01:54:48;-3.10;99.90
15107;DHT22;7654;45.308;-75.096;2023-04-03T01:57:18;-3.10;99.90
15107;DHT22;7654;45.308;-75.096;2023-04-03T01:59:49;-3.10;99.90
15107;DHT22;7654;45.308;-75.096;2023-04-03T02:02:21;-3.20;99.90
15107;DHT22;7654;45.308;-75.096;2023-04-03T02:04:51;-3.30;99.90
15107;DHT22;7654;45.308;-75.096;2023-04-03T02:07:23;-3.40;99.90
15107;DHT22;7654;45.308;-75.096;2023-04-03T02:09:53;-3.50;99.90
15107;DHT22;7654;45.308;-75.096;2023-04-03T02:12:23;-3.60;99.90
15107;DHT22;7654;45.308;-75.096;2023-04-03T02:14:54;-3.70;99.90
15107;DHT22;7654;45.308;-75.096;2023-04-03T02:17:26;-3.70;99.90
15107;DHT22;7654;45.308;-75.096;2023-04-03T02:19:56;-3.60;99.90
15107;DHT22;7654;45.308;-75.096;2023-04-03T02:22:26;-3.50;99.90
15107;DHT22;7654;45.308;-75.096;2023-04-03T02:24:57;-3.50;99.90
15107;DHT22;7654;45.308;-75.096;2023-04-03T02:27:27;-3.50;99.90
15107;DHT22;7654;45.308;-75.096;2023-04-03T02:30:00;-3.40;99.90
15107;DHT22;7654;45.308;-75.096;2023-04-03T02:32:33;-3.10;99.90
15107;DHT22;7654;45.308;-75.096;2023-04-03T02:35:04;-3.00;99.90
15107;DHT22;7654;45.308;-75.096;2023-04-03T02:37:34;-2.90;99.90
15107;DHT22;7654;45.308;-75.096;2023-04-03T02:40:05;-2.90;99.90
15107;DHT22;7654;45.308;-75.096;2023-04-03T02:42:36;-3.00;99.90
15107;DHT22;7654;45.308;-75.096;2023-04-03T02:45:07;-3.00;99.90
15107;DHT22;7654;45.308;-75.096;2023-04-03T02:47:39;-3.10;99.90
15107;DHT22;7654;45.308;-75.096;2023-04-03T02:50:10;-3.20;99.90
15107;DHT22;7654;45.308;-75.096;2023-04-03T02:52:40;-3.30;99.90
15107;DHT22;7654;45.308;-75.096;2023-04-03T02:55:14;-3.20;99.90
15107;DHT22;7654;45.308;-75.096;2023-04-03T02:57:45;-3.30;99.90
15107;DHT22;7654;45.308;-75.096;2023-04-03T03:00:15;-3.30;99.90
15107;DHT22;7654;45.308;-75.096;2023-04-03T03:02:49;-3.40;99.90
15107;DHT22;7654;45.308;-75.096;2023-04-03T03:05:19;-3.40;99.90
15107;DHT22;7654;45.308;-75.096;2023-04-03T03:07:50;-3.40;99.90
15107;DHT22;7654;45.308;-75.096;2023-04-03T03:10:20;-3.40;99.90
15107;DHT22;7654;45.308;-75.096;2023-04-03T03:12:50;-3.40;99.90
15107;DHT22;7654;45.308;-75.096;2023-04-03T03:15:21;-3.30;99.90
15107;DHT22;7654;45.308;-75.096;2023-04-03T03:17:53;-3.20;99.90
15107;DHT22;7654;45.308;-75.096;2023-04-03T03:20:23;-3.30;99.90
15107;DHT22;7654;45.308;-75.096;2023-04-03T03:22:54;-3.20;99.90
15107;DHT22;7654;45.308;-75.096;2023-04-03T03:25:25;-3.10;99.90
15107;DHT22;7654;45.308;-75.096;2023-04-03T03:28:01;-3.00;99.90
15107;DHT22;7654;45.308;-75.096;2023-04-03T03:30:39;-2.90;99.90
15107;DHT22;7654;45.308;-75.096;2023-04-03T03:33:11;-2.70;99.90
15107;DHT22;7654;45.308;-75.096;2023-04-03T03:35:42;-2.60;99.90
15107;DHT22;7654;45.308;-75.096;2023-04-03T03:38:13;-2.60;99.90
15107;DHT22;7654;45.308;-75.096;2023-04-03T03:40:43;-2.50;99.90
15107;DHT22;7654;45.308;-75.096;2023-04-03T03:43:13;-2.40;99.90
15107;DHT22;7654;45.308;-75.096;2023-04-03T03:45:44;-2.30;99.90
15107;DHT22;7654;45.308;-75.096;2023-04-03T03:48:16;-2.10;99.90
15107;DHT22;7654;45.308;-75.096;2023-04-03T03:50:47;-2.10;99.90
15107;DHT22;7654;45.308;-75.096;2023-04-03T03:53:17;-2.00;99.90
15107;DHT22;7654;45.308;-75.096;2023-04-03T03:55:48;-1.90;99.90
15107;DHT22;7654;45.308;-75.096;2023-04-03T03:58:18;-1.90;99.90
15107;DHT22;7654;45.308;-75.096;2023-04-03T04:00:48;-1.90;99.90
15107;DHT22;7654;45.308;-75.096;2023-04-03T04:03:20;-1.90;99.90
15107;DHT22;7654;45.308;-75.096;2023-04-03T04:05:51;-1.90;99.90
15107;DHT22;7654;45.308;-75.096;2023-04-03T04:08:21;-1.80;99.90
15107;DHT22;7654;45.308;-75.096;2023-04-03T04:10:51;-1.80;99.90
15107;DHT22;7654;45.308;-75.096;2023-04-03T04:13:21;-1.80;99.90
15107;DHT22;7654;45.308;-75.096;2023-04-03T04:15:51;-1.80;99.90
15107;DHT22;7654;45.308;-75.096;2023-04-03T04:18:23;-1.80;99.90
15107;DHT22;7654;45.308;-75.096;2023-04-03T04:20:54;-1.80;99.90
15107;DHT22;7654;45.308;-75.096;2023-04-03T04:23:24;-1.80;99.90
15107;DHT22;7654;45.308;-75.096;2023-04-03T04:25:54;-1.90;99.90
15107;DHT22;7654;45.308;-75.096;2023-04-03T04:28:25;-1.90;99.90
15107;DHT22;7654;45.308;-75.096;2023-04-03T04:30:55;-2.00;99.90
15107;DHT22;7654;45.308;-75.096;2023-04-03T04:33:26;-2.10;99.90
15107;DHT22;7654;45.308;-75.096;2023-04-03T04:35:57;-2.20;99.90
15107;DHT22;7654;45.308;-75.096;2023-04-03T04:38:27;-2.30;99.90
15107;DHT22;7654;45.308;-75.096;2023-04-03T04:40:57;-2.40;99.90
15107;DHT22;7654;45.308;-75.096;2023-04-03T04:43:28;-2.50;99.90
15107;DHT22;7654;45.308;-75.096;2023-04-03T04:46:02;-2.50;99.90
15107;DHT22;7654;45.308;-75.096;2023-04-03T04:48:35;-2.60;99.90
15107;DHT22;7654;45.308;-75.096;2023-04-03T04:51:05;-2.60;99.90
15107;DHT22;7654;45.308;-75.096;2023-04-03T04:53:37;-2.70;99.90
15107;DHT22;7654;45.308;-75.096;2023-04-03T04:56:07;-2.70;99.90
15107;DHT22;7654;45.308;-75.096;2023-04-03T04:58:38;-2.70;99.90
15107;DHT22;7654;45.308;-75.096;2023-04-03T05:01:09;-2.70;99.90
15107;DHT22;7654;45.308;-75.096;2023-04-03T05:03:42;-2.70;99.90
15107;DHT22;7654;45.308;-75.096;2023-04-03T05:06:12;-2.80;99.90
15107;DHT22;7654;45.308;-75.096;2023-04-03T05:08:42;-2.80;99.90
15107;DHT22;7654;45.308;-75.096;2023-04-03T05:11:12;-2.80;99.90
15107;DHT22;7654;45.308;-75.096;2023-04-03T05:13:43;-2.80;99.90
15107;DHT22;7654;45.308;-75.096;2023-04-03T05:16:13;-2.80;99.90
15107;DHT22;7654;45.308;-75.096;2023-04-03T05:18:45;-2.80;99.90
15107;DHT22;7654;45.308;-75.096;2023-04-03T05:21:15;-2.80;99.90
15107;DHT22;7654;45.308;-75.096;2023-04-03T05:23:46;-2.80;99.90
15107;DHT22;7654;45.308;-75.096;2023-04-03T05:26:16;-2.70;99.90
15107;DHT22;7654;45.308;-75.096;2023-04-03T05:28:46;-2.70;99.90
15107;DHT22;7654;45.308;-75.096;2023-04-03T05:31:17;-2.70;99.90
15107;DHT22;7654;45.308;-75.096;2023-04-03T05:33:49;-2.60;99.90
15107;DHT22;7654;45.308;-75.096;2023-04-03T05:36:19;-2.50;99.90
15107;DHT22;7654;45.308;-75.096;2023-04-03T05:38:50;-2.50;99.90
15107;DHT22;7654;45.308;-75.096;2023-04-03T05:41:20;-2.50;99.90
15107;DHT22;7654;45.308;-75.096;2023-04-03T05:43:50;-2.50;99.90
15107;DHT22;7654;45.308;-75.096;2023-04-03T05:46:21;-2.50;99.90
15107;DHT22;7654;45.308;-75.096;2023-04-03T05:48:53;-2.60;99.90
15107;DHT22;7654;45.308;-75.096;2023-04-03T05:51:25;-2.60;99.90
15107;DHT22;7654;45.308;-75.096;2023-04-03T05:54:03;-2.70;99.90
15107;DHT22;7654;45.308;-75.096;2023-04-03T05:56:35;-2.80;99.90
15107;DHT22;7654;45.308;-75.096;2023-04-03T05:59:05;-2.80;99.90
15107;DHT22;7654;45.308;-75.096;2023-04-03T06:01:36;-2.90;99.90
15107;DHT22;7654;45.308;-75.096;2023-04-03T06:04:08;-2.90;99.90
15107;DHT22;7654;45.308;-75.096;2023-04-03T06:06:45;-2.90;99.90
15107;DHT22;7654;45.308;-75.096;2023-04-03T06:09:16;-2.90;99.90
15107;DHT22;7654;45.308;-75.096;2023-04-03T06:11:47;-3.00;99.90
15107;DHT22;7654;45.308;-75.096;2023-04-03T06:14:17;-3.00;99.90
15107;DHT22;7654;45.308;-75.096;2023-04-03T06:16:48;-3.10;99.90
15107;DHT22;7654;45.308;-75.096;2023-04-03T06:19:20;-3.10;99.90
15107;DHT22;7654;45.308;-75.096;2023-04-03T06:21:51;-3.10;99.90
15107;DHT22;7654;45.308;-75.096;2023-04-03T06:24:22;-3.10;99.90
15107;DHT22;7654;45.308;-75.096;2023-04-03T06:26:53;-3.20;99.90
15107;DHT22;7654;45.308;-75.096;2023-04-03T06:29:24;-3.30;99.90
15107;DHT22;7654;45.308;-75.096;2023-04-03T06:31:54;-3.30;99.90
15107;DHT22;7654;45.308;-75.096;2023-04-03T06:34:26;-3.40;99.90
15107;DHT22;7654;45.308;-75.096;2023-04-03T06:36:56;-3.40;99.90
15107;DHT22;7654;45.308;-75.096;2023-04-03T06:39:27;-3.40;99.90
15107;DHT22;7654;45.308;-75.096;2023-04-03T06:41:57;-3.40;99.90
15107;DHT22;7654;45.308;-75.096;2023-04-03T06:44:28;-3.40;99.90
15107;DHT22;7654;45.308;-75.096;2023-04-03T06:46:59;-3.30;99.90
15107;DHT22;7654;45.308;-75.096;2023-04-03T06:49:30;-3.30;99.90
15107;DHT22;7654;45.308;-75.096;2023-04-03T06:52:01;-3.20;99.90
15107;DHT22;7654;45.308;-75.096;2023-04-03T06:54:33;-3.20;99.90
15107;DHT22;7654;45.308;-75.096;2023-04-03T06:57:03;-3.10;99.90
15107;DHT22;7654;45.308;-75.096;2023-04-03T06:59:34;-3.00;99.90
15107;DHT22;7654;45.308;-75.096;2023-04-03T07:02:04;-3.00;99.90
15107;DHT22;7654;45.308;-75.096;2023-04-03T07:04:36;-2.90;99.90
15107;DHT22;7654;45.308;-75.096;2023-04-03T07:07:06;-2.80;99.90
15107;DHT22;7654;45.308;-75.096;2023-04-03T07:09:37;-2.80;99.90
15107;DHT22;7654;45.308;-75.096;2023-04-03T07:12:09;-2.80;99.90
15107;DHT22;7654;45.308;-75.096;2023-04-03T07:14:39;-2.80;99.90
15107;DHT22;7654;45.308;-75.096;2023-04-03T07:17:10;-2.70;99.90
15107;DHT22;7654;45.308;-75.096;2023-04-03T07:19:42;-2.70;99.90
15107;DHT22;7654;45.308;-75.096;2023-04-03T07:22:13;-2.70;99.90
15107;DHT22;7654;45.308;-75.096;2023-04-03T07:24:43;-2.70;99.90
15107;DHT22;7654;45.308;-75.096;2023-04-03T07:27:13;-2.70;99.90
15107;DHT22;7654;45.308;-75.096;2023-04-03T07:29:43;-2.70;99.90
15107;DHT22;7654;45.308;-75.096;2023-04-03T07:32:15;-2.80;99.90
15107;DHT22;7654;45.308;-75.096;2023-04-03T07:34:47;-2.80;99.90
15107;DHT22;7654;45.308;-75.096;2023-04-03T07:37:18;-2.80;99.90
15107;DHT22;7654;45.308;-75.096;2023-04-03T07:39:48;-2.90;99.90
15107;DHT22;7654;45.308;-75.096;2023-04-03T07:42:19;-2.90;99.90
15107;DHT22;7654;45.308;-75.096;2023-04-03T07:44:49;-2.90;99.90
15107;DHT22;7654;45.308;-75.096;2023-04-03T07:47:19;-3.00;99.90
15107;DHT22;7654;45.308;-75.096;2023-04-03T07:49:51;-3.00;99.90
15107;DHT22;7654;45.308;-75.096;2023-04-03T07:52:22;-3.00;99.90
15107;DHT22;7654;45.308;-75.096;2023-04-03T07:54:53;-3.10;99.90
15107;DHT22;7654;45.308;-75.096;2023-04-03T07:57:23;-3.10;99.90
15107;DHT22;7654;45.308;-75.096;2023-04-03T07:59:53;-3.10;99.90
15107;DHT22;7654;45.308;-75.096;2023-04-03T08:02:24;-3.20;99.90
15107;DHT22;7654;45.308;-75.096;2023-04-03T08:04:56;-3.30;99.90
15107;DHT22;7654;45.308;-75.096;2023-04-03T08:07:27;-3.30;99.90
15107;DHT22;7654;45.308;-75.096;2023-04-03T08:09:57;-3.30;99.90
15107;DHT22;7654;45.308;-75.096;2023-04-03T08:12:28;-3.30;99.90
15107;DHT22;7654;45.308;-75.096;2023-04-03T08:15:00;-3.30;99.90
15107;DHT22;7654;45.308;-75.096;2023-04-03T08:17:30;-3.30;99.90
15107;DHT22;7654;45.308;-75.096;2023-04-03T08:20:03;-3.30;99.90
15107;DHT22;7654;45.308;-75.096;2023-04-03T08:22:34;-3.30;99.90
15107;DHT22;7654;45.308;-75.096;2023-04-03T08:25:05;-3.20;99.90
15107;DHT22;7654;45.308;-75.096;2023-04-03T08:27:35;-3.20;99.90
15107;DHT22;7654;45.308;-75.096;2023-04-03T08:30:07;-3.20;99.90
15107;DHT22;7654;45.308;-75.096;2023-04-03T08:32:38;-3.20;99.90
15107;DHT22;7654;45.308;-75.096;2023-04-03T08:35:12;-3.20;99.90
15107;DHT22;7654;45.308;-75.096;2023-04-03T08:37:42;-3.10;99.90
15107;DHT22;7654;45.308;-75.096;2023-04-03T08:40:15;-3.10;99.90
15107;DHT22;7654;45.308;-75.096;2023-04-03T08:42:53;-3.00;99.90
15107;DHT22;7654;45.308;-75.096;2023-04-03T08:45:35;-3.00;99.90
15107;DHT22;7654;45.308;-75.096;2023-04-03T08:48:12;-3.00;99.90
15107;DHT22;7654;45.308;-75.096;2023-04-03T08:50:48;-2.90;99.90
15107;DHT22;7654;45.308;-75.096;2023-04-03T08:53:21;-2.90;99.90
15107;DHT22;7654;45.308;-75.096;2023-04-03T08:55:53;-2.90;99.90
15107;DHT22;7654;45.308;-75.096;2023-04-03T08:58:26;-2.90;99.90
15107;DHT22;7654;45.308;-75.096;2023-04-03T09:01:00;-3.00;99.90
15107;DHT22;7654;45.308;-75.096;2023-04-03T09:03:32;-3.00;99.90
15107;DHT22;7654;45.308;-75.096;2023-04-03T09:06:09;-3.00;99.90
15107;DHT22;7654;45.308;-75.096;2023-04-03T09:08:45;-3.00;99.90
15107;DHT22;7654;45.308;-75.096;2023-04-03T09:11:23;-3.10;99.90
15107;DHT22;7654;45.308;-75.096;2023-04-03T09:13:59;-3.00;99.90
15107;DHT22;7654;45.308;-75.096;2023-04-03T09:16:38;-3.00;99.90
15107;DHT22;7654;45.308;-75.096;2023-04-03T09:19:18;-3.00;99.90
15107;DHT22;7654;45.308;-75.096;2023-04-03T09:21:55;-3.00;99.90
15107;DHT22;7654;45.308;-75.096;2023-04-03T09:24:26;-3.10;99.90
15107;DHT22;7654;45.308;-75.096;2023-04-03T09:26:58;-3.10;99.90
15107;DHT22;7654;45.308;-75.096;2023-04-03T09:29:31;-3.10;99.90
15107;DHT22;7654;45.308;-75.096;2023-04-03T09:32:19;-3.20;99.90
15107;DHT22;7654;45.308;-75.096;2023-04-03T09:34:51;-3.20;99.90
15107;DHT22;7654;45.308;-75.096;2023-04-03T09:37:39;-3.20;99.90
15107;DHT22;7654;45.308;-75.096;2023-04-03T09:40:30;-3.30;99.90
15107;DHT22;7654;45.308;-75.096;2023-04-03T09:45:50;-3.30;99.90
15107;DHT22;7654;45.308;-75.096;2023-04-03T09:48:22;-3.30;99.90
15107;DHT22;7654;45.308;-75.096;2023-04-03T09:50:56;-3.30;99.90
15107;DHT22;7654;45.308;-75.096;2023-04-03T09:53:35;-3.30;99.90
15107;DHT22;7654;45.308;-75.096;2023-04-03T09:56:19;-3.20;99.90
15107;DHT22;7654;45.308;-75.096;2023-04-03T09:58:51;-3.10;99.90
15107;DHT22;7654;45.308;-75.096;2023-04-03T10:01:33;-3.10;99.90
15107;DHT22;7654;45.308;-75.096;2023-04-03T10:04:09;-3.00;99.90
15107;DHT22;7654;45.308;-75.096;2023-04-03T10:06:40;-3.00;99.90
15107;DHT22;7654;45.308;-75.096;2023-04-03T10:09:20;-3.00;99.90
15107;DHT22;7654;45.308;-75.096;2023-04-03T10:12:00;-2.90;99.90
15107;DHT22;7654;45.308;-75.096;2023-04-03T10:14:33;-2.90;99.90
15107;DHT22;7654;45.308;-75.096;2023-04-03T10:17:14;-2.80;99.90
15107;DHT22;7654;45.308;-75.096;2023-04-03T10:19:52;-2.80;99.90
15107;DHT22;7654;45.308;-75.096;2023-04-03T10:22:34;-2.70;99.90
15107;DHT22;7654;45.308;-75.096;2023-04-03T10:25:15;-2.60;99.90
15107;DHT22;7654;45.308;-75.096;2023-04-03T10:27:53;-2.60;99.90
15107;DHT22;7654;45.308;-75.096;2023-04-03T10:30:35;-2.50;99.90
15107;DHT22;7654;45.308;-75.096;2023-04-03T10:33:33;-2.50;99.90
15107;DHT22;7654;45.308;-75.096;2023-04-03T10:36:12;-2.50;99.90
15107;DHT22;7654;45.308;-75.096;2023-04-03T10:38:54;-2.40;99.90
15107;DHT22;7654;45.308;-75.096;2023-04-03T10:41:39;-2.40;99.90
15107;DHT22;7654;45.308;-75.096;2023-04-03T10:44:18;-2.40;99.90
15107;DHT22;7654;45.308;-75.096;2023-04-03T10:46:53;-2.30;99.90
15107;DHT22;7654;45.308;-75.096;2023-04-03T10:49:36;-2.30;99.90
15107;DHT22;7654;45.308;-75.096;2023-04-03T10:52:30;-2.20;99.90
15107;DHT22;7654;45.308;-75.096;2023-04-03T10:55:13;-2.20;99.90
15107;DHT22;7654;45.308;-75.096;2023-04-03T10:57:50;-2.20;99.90
15107;DHT22;7654;45.308;-75.096;2023-04-03T11:00:25;-2.10;99.90
15107;DHT22;7654;45.308;-75.096;2023-04-03T11:02:59;-2.00;99.90
15107;DHT22;7654;45.308;-75.096;2023-04-03T11:05:36;-1.90;99.90
15107;DHT22;7654;45.308;-75.096;2023-04-03T11:08:13;-1.90;99.90
15107;DHT22;7654;45.308;-75.096;2023-04-03T11:10:48;-1.90;99.90
15107;DHT22;7654;45.308;-75.096;2023-04-03T11:13:24;-1.90;99.90
15107;DHT22;7654;45.308;-75.096;2023-04-03T11:15:57;-1.80;99.90
15107;DHT22;7654;45.308;-75.096;2023-04-03T11:18:35;-1.80;99.90
15107;DHT22;7654;45.308;-75.096;2023-04-03T11:21:11;-1.80;99.90
15107;DHT22;7654;45.308;-75.096;2023-04-03T11:23:42;-1.80;99.90
15107;DHT22;7654;45.308;-75.096;2023-04-03T11:26:18;-1.80;99.90
15107;DHT22;7654;45.308;-75.096;2023-04-03T11:28:57;-1.70;99.90
15107;DHT22;7654;45.308;-75.096;2023-04-03T11:31:48;-1.60;99.90
15107;DHT22;7654;45.308;-75.096;2023-04-03T11:34:33;-1.50;99.90
15107;DHT22;7654;45.308;-75.096;2023-04-03T11:37:13;-1.40;99.90
15107;DHT22;7654;45.308;-75.096;2023-04-03T11:39:53;-1.40;99.90
15107;DHT22;7654;45.308;-75.096;2023-04-03T11:42:33;-1.30;99.90
15107;DHT22;7654;45.308;-75.096;2023-04-03T11:45:29;-1.30;99.90
15107;DHT22;7654;45.308;-75.096;2023-04-03T11:48:02;-1.20;99.90
15107;DHT22;7654;45.308;-75.096;2023-04-03T11:50:50;-1.10;99.90
15107;DHT22;7654;45.308;-75.096;2023-04-03T11:53:32;-1.10;99.90
15107;DHT22;7654;45.308;-75.096;2023-04-03T11:56:30;-1.10;99.90
15107;DHT22;7654;45.308;-75.096;2023-04-03T11:59:23;-1.00;99.90
15107;DHT22;7654;45.308;-75.096;2023-04-03T12:01:57;-0.90;99.90
15107;DHT22;7654;45.308;-75.096;2023-04-03T12:04:28;-0.90;99.90
15107;DHT22;7654;45.308;-75.096;2023-04-03T12:07:20;-0.90;99.90
15107;DHT22;7654;45.308;-75.096;2023-04-03T12:09:58;-0.90;99.90
15107;DHT22;7654;45.308;-75.096;2023-04-03T12:12:31;-0.90;99.90
15107;DHT22;7654;45.308;-75.096;2023-04-03T12:15:26;-0.90;99.90
15107;DHT22;7654;45.308;-75.096;2023-04-03T12:21:22;-1.10;99.90
15107;DHT22;7654;45.308;-75.096;2023-04-03T12:24:02;-1.20;99.90
15107;DHT22;7654;45.308;-75.096;2023-04-03T12:26:40;-1.30;99.90
15107;DHT22;7654;45.308;-75.096;2023-04-03T12:29:20;-1.20;99.90
15107;DHT22;7654;45.308;-75.096;2023-04-03T12:32:03;-1.20;99.90
15107;DHT22;7654;45.308;-75.096;2023-04-03T12:34:56;-1.20;99.90
15107;DHT22;7654;45.308;-75.096;2023-04-03T12:37:43;-1.10;99.90
15107;DHT22;7654;45.308;-75.096;2023-04-03T12:40:24;-1.10;99.90
15107;DHT22;7654;45.308;-75.096;2023-04-03T12:43:10;-0.90;99.90
15107;DHT22;7654;45.308;-75.096;2023-04-03T12:45:45;-0.70;99.90
15107;DHT22;7654;45.308;-75.096;2023-04-03T12:48:20;-0.50;99.90
15107;DHT22;7654;45.308;-75.096;2023-04-03T12:50:52;-0.40;99.90
15107;DHT22;7654;45.308;-75.096;2023-04-03T12:53:27;-0.30;99.90
15107;DHT22;7654;45.308;-75.096;2023-04-03T12:56:19;-0.30;99.90
15107;DHT22;7654;45.308;-75.096;2023-04-03T12:58:51;-0.30;99.90
15107;DHT22;7654;45.308;-75.096;2023-04-03T13:01:23;-0.20;99.90
15107;DHT22;7654;45.308;-75.096;2023-04-03T13:03:56;-0.20;99.90
15107;DHT22;7654;45.308;-75.096;2023-04-03T13:06:38;0.10;99.90
15107;DHT22;7654;45.308;-75.096;2023-04-03T13:09:21;0.20;99.90
15107;DHT22;7654;45.308;-75.096;2023-04-03T13:11:55;0.20;99.90
15107;DHT22;7654;45.308;-75.096;2023-04-03T13:14:28;0.30;99.90
15107;DHT22;7654;45.308;-75.096;2023-04-03T13:16:59;0.40;99.90
15107;DHT22;7654;45.308;-75.096;2023-04-03T13:19:32;0.40;99.90
15107;DHT22;7654;45.308;-75.096;2023-04-03T13:22:04;0.50;99.90
15107;DHT22;7654;45.308;-75.096;2023-04-03T13:24:38;0.80;99.90
15107;DHT22;7654;45.308;-75.096;2023-04-03T13:27:11;1.20;99.90
15107;DHT22;7654;45.308;-75.096;2023-04-03T13:29:42;1.40;99.90
15107;DHT22;7654;45.308;-75.096;2023-04-03T13:32:19;1.90;99.90
15107;DHT22;7654;45.308;-75.096;2023-04-03T13:34:50;2.10;99.90
15107;DHT22;7654;45.308;-75.096;2023-04-03T13:37:23;2.50;99.90
15107;DHT22;7654;45.308;-75.096;2023-04-03T13:40:09;2.70;99.90
15107;DHT22;7654;45.308;-75.096;2023-04-03T13:42:41;3.00;99.90
15107;DHT22;7654;45.308;-75.096;2023-04-03T13:45:19;3.20;99.90
15107;DHT22;7654;45.308;-75.096;2023-04-03T13:47:54;3.20;99.90
15107;DHT22;7654;45.308;-75.096;2023-04-03T13:50:59;3.30;99.90
15107;DHT22;7654;45.308;-75.096;2023-04-03T13:53:31;3.50;99.90
15107;DHT22;7654;45.308;-75.096;2023-04-03T13:56:13;3.70;99.90
15107;DHT22;7654;45.308;-75.096;2023-04-03T13:58:54;3.70;99.90
15107;DHT22;7654;45.308;-75.096;2023-04-03T14:01:32;3.80;99.90
15107;DHT22;7654;45.308;-75.096;2023-04-03T14:04:12;4.00;99.90
15107;DHT22;7654;45.308;-75.096;2023-04-03T14:06:44;4.20;99.90
15107;DHT22;7654;45.308;-75.096;2023-04-03T14:09:15;4.20;99.90
15107;DHT22;7654;45.308;-75.096;2023-04-03T14:11:50;4.10;99.90
15107;DHT22;7654;45.308;-75.096;2023-04-03T14:14:22;3.90;99.90
15107;DHT22;7654;45.308;-75.096;2023-04-03T14:16:55;4.00;99.90
15107;DHT22;7654;45.308;-75.096;2023-04-03T14:19:28;4.00;99.90
15107;DHT22;7654;45.308;-75.096;2023-04-03T14:22:00;4.20;99.90
15107;DHT22;7654;45.308;-75.096;2023-04-03T14:24:33;4.40;99.90
15107;DHT22;7654;45.308;-75.096;2023-04-03T14:27:14;4.30;99.90
15107;DHT22;7654;45.308;-75.096;2023-04-03T14:29:46;4.20;99.90
15107;DHT22;7654;45.308;-75.096;2023-04-03T14:32:17;4.20;99.90
15107;DHT22;7654;45.308;-75.096;2023-04-03T14:38:20;4.40;99.90
15107;DHT22;7654;45.308;-75.096;2023-04-03T14:40:52;4.70;99.90
15107;DHT22;7654;45.308;-75.096;2023-04-03T14:43:35;5.20;99.90
15107;DHT22;7654;45.308;-75.096;2023-04-03T14:46:13;5.20;99.90
15107;DHT22;7654;45.308;-75.096;2023-04-03T14:48:44;5.40;99.90
15107;DHT22;7654;45.308;-75.096;2023-04-03T14:51:16;5.20;99.90
15107;DHT22;7654;45.308;-75.096;2023-04-03T14:53:46;5.20;99.90
15107;DHT22;7654;45.308;-75.096;2023-04-03T14:56:19;5.20;99.90
15107;DHT22;7654;45.308;-75.096;2023-04-03T14:58:56;5.20;99.90
15107;DHT22;7654;45.308;-75.096;2023-04-03T15:01:29;5.10;99.90
15107;DHT22;7654;45.308;-75.096;2023-04-03T15:04:00;5.20;99.90
15107;DHT22;7654;45.308;-75.096;2023-04-03T15:06:30;5.20;99.90
15107;DHT22;7654;45.308;-75.096;2023-04-03T15:09:02;5.20;99.90
15107;DHT22;7654;45.308;-75.096;2023-04-03T15:11:32;5.30;99.90
15107;DHT22;7654;45.308;-75.096;2023-04-03T15:14:04;5.50;99.90
15107;DHT22;7654;45.308;-75.096;2023-04-03T15:16:35;5.70;99.90
15107;DHT22;7654;45.308;-75.096;2023-04-03T15:19:06;6.00;99.90
15107;DHT22;7654;45.308;-75.096;2023-04-03T15:21:36;5.70;99.90
15107;DHT22;7654;45.308;-75.096;2023-04-03T15:24:08;5.40;99.90
15107;DHT22;7654;45.308;-75.096;2023-04-03T15:26:39;5.20;99.90
15107;DHT22;7654;45.308;-75.096;2023-04-03T15:29:11;5.20;99.90
15107;DHT22;7654;45.308;-75.096;2023-04-03T15:31:41;5.00;99.90
15107;DHT22;7654;45.308;-75.096;2023-04-03T15:34:13;4.90;99.90
15107;DHT22;7654;45.308;-75.096;2023-04-03T15:36:44;4.70;99.90
15107;DHT22;7654;45.308;-75.096;2023-04-03T15:39:14;4.60;99.90
15107;DHT22;7654;45.308;-75.096;2023-04-03T15:41:45;4.40;99.90
15107;DHT22;7654;45.308;-75.096;2023-04-03T15:44:17;4.40;99.90
15107;DHT22;7654;45.308;-75.096;2023-04-03T15:46:48;4.30;99.90
15107;DHT22;7654;45.308;-75.096;2023-04-03T15:49:20;4.20;99.90
15107;DHT22;7654;45.308;-75.096;2023-04-03T15:51:51;4.30;99.90
15107;DHT22;7654;45.308;-75.096;2023-04-03T15:54:33;4.20;99.90
15107;DHT22;7654;45.308;-75.096;2023-04-03T15:57:03;4.20;99.90
15107;DHT22;7654;45.308;-75.096;2023-04-03T15:59:35;4.20;99.90
15107;DHT22;7654;45.308;-75.096;2023-04-03T16:02:07;4.30;99.90
15107;DHT22;7654;45.308;-75.096;2023-04-03T16:04:38;4.30;99.90
15107;DHT22;7654;45.308;-75.096;2023-04-03T16:07:08;4.40;99.90
15107;DHT22;7654;45.308;-75.096;2023-04-03T16:09:38;4.50;99.90